createdAt,value
2019-01-15T00:00:58.514Z,10.57
2019-01-15T00:07:04.807Z,11.37
2019-01-15T00:13:10.937Z,14.63
2019-01-15T00:19:16.664Z,12.87
2019-01-15T00:25:22.590Z,12.70
2019-01-15T00:31:28.378Z,16.93
2019-01-15T00:37:34.599Z,13.63
2019-01-15T00:43:40.315Z,18.93
2019-01-15T00:49:46.423Z,12.27
2019-01-15T00:55:52.143Z,12.60
2019-01-15T01:01:58.074Z,12.67
2019-01-15T01:08:04.224Z,13.93
2019-01-15T01:14:10.492Z,11.17
2019-01-15T01:20:21.624Z,12.67
2019-01-15T01:26:27.563Z,14.50
2019-01-15T01:32:33.509Z,19.13
2019-01-15T01:38:39.218Z,19.87
2019-01-15T01:44:45.020Z,17.03
2019-01-15T01:50:51.060Z,18.97
2019-01-15T01:56:56.804Z,23.87
2019-01-15T02:03:02.706Z,12.97
2019-01-15T02:09:10.481Z,16.60
2019-01-15T02:15:22.351Z,13.87
2019-01-15T02:21:28.387Z,14.30
2019-01-15T02:27:34.744Z,14.47
2019-01-15T02:33:40.481Z,15.77
2019-01-15T02:39:46.238Z,18.80
2019-01-15T02:45:52.097Z,15.10
2019-01-15T02:51:58.030Z,16.90
2019-01-15T02:58:03.956Z,18.10
2019-01-15T03:04:09.976Z,17.10
2019-01-15T03:10:17.847Z,18.37
2019-01-15T03:16:23.800Z,15.73
2019-01-15T03:22:29.560Z,15.93
2019-01-15T03:28:35.393Z,17.20
2019-01-15T03:34:41.111Z,16.30
2019-01-15T03:40:47.167Z,16.37
2019-01-15T03:46:53.017Z,19.87
2019-01-15T03:52:58.762Z,18.37
2019-01-15T03:59:05.265Z,17.93
2019-01-15T04:05:11.610Z,24.63
2019-01-15T04:11:17.334Z,22.90
2019-01-15T04:17:23.060Z,19.23
2019-01-15T04:23:29.001Z,17.40
2019-01-15T04:29:34.980Z,19.43
2019-01-15T04:35:40.810Z,22.63
2019-01-15T04:41:46.989Z,22.90
2019-01-15T04:47:53.414Z,22.27
2019-01-15T04:53:59.328Z,22.43
2019-01-15T05:00:07.002Z,27.43
2019-01-15T05:06:13.286Z,18.23
2019-01-15T05:12:19.131Z,18.63
2019-01-15T05:18:25.070Z,25.57
2019-01-15T05:24:30.858Z,21.80
2019-01-15T05:30:36.627Z,22.77
2019-01-15T05:36:42.382Z,23.93
2019-01-15T05:42:48.831Z,19.47
2019-01-15T05:48:54.583Z,24.23
2019-01-15T05:55:00.730Z,26.67
2019-01-15T06:01:07.074Z,18.97
2019-01-15T06:07:13.021Z,22.07
2019-01-15T06:13:19.000Z,24.43
2019-01-15T06:19:24.744Z,21.37
2019-01-15T06:25:30.708Z,23.77
2019-01-15T06:31:36.572Z,22.77
2019-01-15T06:37:42.360Z,21.63
2019-01-15T06:43:50.150Z,20.73
2019-01-15T06:49:57.521Z,25.27
2019-01-15T07:03:34.889Z,23.90
2019-01-15T07:09:52.534Z,22.07
2019-01-15T07:15:59.999Z,21.77
2019-01-15T07:22:06.130Z,21.80
2019-01-15T07:28:12.385Z,21.53
2019-01-15T07:34:18.487Z,25.40
2019-01-15T07:40:24.488Z,22.07
2019-01-15T07:46:30.355Z,24.37
2019-01-15T07:52:36.928Z,23.77
2019-01-15T07:58:42.721Z,22.50
2019-01-15T08:04:48.467Z,28.47
2019-01-15T08:10:57.169Z,22.93
2019-01-15T08:17:02.149Z,26.03
2019-01-15T08:23:16.899Z,22.80
2019-01-15T08:29:22.714Z,24.00
2019-01-15T08:35:28.519Z,27.93
2019-01-15T08:41:34.390Z,30.80
2019-01-15T08:47:46.686Z,29.53
2019-01-15T08:53:52.844Z,27.20
2019-01-15T08:59:58.553Z,27.80
2019-01-15T09:06:04.346Z,31.17
2019-01-15T09:12:10.409Z,28.77
2019-01-15T09:18:16.932Z,31.87
2019-01-15T09:24:23.899Z,30.77
2019-01-15T09:30:29.810Z,28.07
2019-01-15T09:36:35.809Z,29.07
2019-01-15T09:42:41.607Z,26.63
2019-01-15T09:48:47.786Z,30.33
2019-01-15T09:54:53.589Z,29.97
2019-01-15T10:00:59.396Z,24.93
2019-01-15T10:07:05.326Z,29.93
2019-01-15T10:13:11.155Z,30.97
2019-01-15T10:19:16.996Z,27.80
2019-01-15T10:25:28.167Z,26.30
2019-01-15T10:32:46.377Z,26.43
2019-01-15T10:38:52.210Z,18.07
2019-01-15T10:44:58.234Z,23.60
2019-01-15T10:51:04.052Z,22.53
2019-01-15T10:57:09.794Z,20.80
2019-01-15T11:03:15.608Z,22.13
2019-01-15T11:09:21.469Z,19.70
2019-01-15T11:15:27.482Z,21.63
2019-01-15T11:21:33.586Z,20.83
2019-01-15T11:27:40.288Z,14.80
2019-01-15T11:33:46.183Z,15.90
2019-01-15T11:39:52.321Z,17.67
2019-01-15T11:45:58.195Z,14.53
2019-01-15T11:52:04.130Z,15.97
2019-01-15T11:58:10.038Z,13.43
2019-01-15T12:04:43.280Z,11.57
2019-01-15T12:11:06.732Z,12.13
2019-01-15T12:17:32.094Z,8.60
2019-01-15T12:23:55.300Z,11.47
2019-01-15T12:30:29.214Z,8.13
2019-01-15T12:36:57.170Z,16.57
2019-01-15T12:43:37.017Z,16.60
2019-01-15T12:50:00.444Z,13.70
2019-01-15T12:56:37.491Z,13.53
2019-01-15T13:03:01.645Z,12.90
2019-01-15T13:09:43.988Z,9.27
2019-01-15T13:16:09.034Z,12.07
2019-01-15T13:22:32.245Z,12.23
2019-01-15T13:28:55.495Z,11.70
2019-01-15T13:35:18.918Z,8.63
2019-01-15T13:41:33.485Z,8.33
2019-01-15T13:47:56.868Z,12.67
2019-01-15T13:54:20.158Z,10.90
2019-01-15T14:00:47.488Z,15.07
2019-01-15T14:07:15.229Z,13.63
2019-01-15T14:13:46.089Z,13.67
2019-01-15T14:20:07.727Z,7.57
2019-01-15T14:26:47.216Z,9.30
2019-01-15T14:33:11.988Z,10.13
2019-01-15T14:39:46.514Z,5.87
2019-01-15T14:46:19.534Z,8.03
2019-01-15T14:52:53.528Z,9.17
2019-01-15T14:59:29.366Z,4.77
2019-01-15T15:05:59.711Z,9.77
2019-01-15T15:12:13.370Z,6.47
2019-01-15T15:18:37.778Z,7.03
2019-01-15T15:25:17.727Z,7.50
2019-01-15T15:32:01.691Z,10.33
2019-01-15T15:38:32.166Z,8.83
2019-01-15T15:44:59.794Z,9.40
2019-01-15T15:51:36.447Z,9.83
2019-01-15T15:58:18.945Z,8.87
2019-01-15T16:04:42.038Z,8.20
2019-01-15T16:11:18.605Z,8.07
2019-01-15T16:17:43.937Z,6.50
2019-01-15T16:24:11.664Z,6.93
2019-01-15T16:30:36.792Z,9.07
2019-01-15T16:37:00.001Z,9.00
2019-01-15T16:43:23.268Z,5.37
2019-01-15T16:49:46.344Z,6.77
2019-01-15T16:56:17.052Z,11.80
2019-01-15T17:02:41.756Z,9.03
2019-01-15T17:09:04.467Z,11.23
2019-01-15T17:15:30.807Z,10.80
2019-01-15T17:22:10.425Z,9.97
2019-01-15T17:28:46.969Z,6.23
2019-01-15T17:35:10.508Z,6.33
2019-01-15T17:41:41.844Z,8.07
2019-01-15T17:48:15.859Z,7.23
2019-01-15T17:54:49.435Z,6.90
2019-01-15T18:01:47.220Z,7.87
2019-01-15T18:07:44.876Z,7.73
2019-01-15T18:14:26.868Z,9.33
2019-01-15T18:21:18.424Z,6.93
2019-01-15T18:27:37.456Z,7.47
2019-01-15T18:34:00.849Z,7.93
2019-01-15T18:40:37.523Z,9.40
2019-01-15T18:47:01.458Z,8.17
2019-01-15T18:53:28.741Z,10.40
2019-01-15T18:59:52.171Z,6.90
2019-01-15T19:06:20.595Z,10.60
2019-01-15T19:12:43.143Z,6.73
2019-01-15T19:19:06.599Z,9.13
2019-01-15T19:25:49.589Z,7.27
2019-01-15T19:32:15.105Z,10.43
2019-01-15T19:38:49.566Z,6.63
2019-01-15T19:45:11.698Z,8.83
2019-01-15T19:51:42.568Z,8.03
2019-01-15T19:58:01.418Z,6.77
2019-01-15T20:04:26.609Z,7.20
2019-01-15T20:10:50.258Z,6.80
2019-01-15T20:17:18.528Z,10.33
2019-01-15T20:23:51.137Z,5.97
2019-01-15T20:30:15.056Z,8.60
2019-01-15T20:36:39.379Z,5.73
2019-01-15T20:43:02.202Z,6.50
2019-01-15T20:49:38.842Z,6.63
2019-01-15T20:56:18.617Z,9.60
2019-01-15T21:02:42.602Z,6.23
2019-01-15T21:09:02.804Z,7.00
2019-01-15T21:15:31.477Z,7.03
2019-01-15T21:21:55.027Z,6.60
2019-01-15T21:28:11.793Z,7.30
2019-01-15T21:34:36.455Z,7.60
2019-01-15T21:40:57.673Z,8.30
2019-01-15T21:47:40.219Z,7.63
2019-01-15T21:53:58.081Z,9.53
2019-01-15T22:00:31.414Z,8.60
2019-01-15T22:07:05.224Z,8.70
2019-01-15T22:13:28.434Z,8.43
2019-01-15T22:19:51.497Z,8.33
2019-01-15T22:26:16.190Z,8.33
2019-01-15T22:32:45.670Z,8.17
2019-01-15T22:39:17.013Z,9.00
2019-01-15T22:45:36.078Z,8.87
2019-01-15T22:51:59.771Z,11.03
2019-01-15T22:58:24.812Z,9.87
2019-01-15T23:04:45.185Z,9.90
2019-01-15T23:11:09.436Z,10.80
2019-01-15T23:17:31.172Z,10.67
2019-01-15T23:24:01.681Z,11.07
2019-01-15T23:30:34.390Z,11.27
2019-01-15T23:36:55.079Z,10.77
2019-01-15T23:43:19.824Z,9.87
2019-01-15T23:49:46.892Z,11.37
2019-01-15T23:56:10.255Z,10.97
